VTBD/DMK METAR and TAF weather

Enter ICAO airport designator
Station Type Date Time Source
VTBD METAR 2021/09/16 11:00 UTC NOAA

VTBD 161100Z 19007KT 9999 FEW020 29/24 Q1007 NOSIG


Station Type Date Time Source
VTBD Decoded METAR 2021/09/16 11:00 UTC NOAA

Don Muang, Thailand (VTBD) 13-55N 100-36E 12M
Sep 16, 2021 - 07:00 AM EDT / 2021.09.16 1100 UTC
Wind: from the S (190 degrees) at 8 MPH (7 KT):0
Visibility: greater than 7 mile(s):0
Sky conditions: mostly clear
Temperature: 84 F (29 C)
Dew Point: 75 F (24 C)
Relative Humidity: 74%
Pressure (altimeter): 29.74 in. Hg (1007 hPa)
ob: VTBD 161100Z 19007KT 9999 FEW020 29/24 Q1007 NOSIG
cycle: 11

Station Type Date Time Source
VTBD TAF 2021/09/16 06:36 UTC NOAA

TAF TAF VTBD 160500Z 1606/1712 16005KT 9999 FEW020 SCT040
TEMPO 1610/1614 VRB15KT 4000 TSRA FEW018CB SCT030 BKN100

Example: see airport list